»·PEaware :: WAT352 KSNA-KRNO

WAT352 :: KSNA-KRNO

FLIGHT INFORMATION

Flight Status: Arrived
Operator:
Walker Air Transport
More flights by this operator :: More flights under this callsign
Pilot: Matthew M. (27032)
Aircraft: BEECH AIRCRAFT SUPER KING AIR 350
(B350)
More flights by this aircraft type
Origin: KSNA John Wayne-Orange Co
United States
Destination: KRNO Reno/Tahoe Intl
United States
More flights between these airports :: More routes between these airports
Route: +CHANL3 SXC LAX LHS EHF FMG
File this flight plan on PilotEdge
Remarks:
Altitude:
(Current/Filed)
26,000ft
Speed:
(Current/Filed)
300kts
Departed: 24-Oct-20 10:54 AM
Arrived: 24-Oct-20 12:35 PM
Distance/Time
Traveled:
361nm/1:41
Distance/Time
To Go:
Arrived

Flight Plot

Page will automatically refresh every two minutes.

Flight plan parsing failed; only flown route is shown


Map Options




Map Legend


Flown Route
Filed Route
Departure Airport
Arrival Airport
Navaid (VOR, NDB)
Fix

Horizontal Profiles

Position Reports

Time Latitude Longitude Heading Altitude Ground
Speed
24-Oct-20 10:06 33.672357 -117.866920 210 61ft 0kts
24-Oct-20 10:06 33.672357 -117.866920 210 61ft 0kts
24-Oct-20 10:08 33.672357 -117.866920 210 61ft 0kts
24-Oct-20 10:08 33.672357 -117.866920 210 61ft 0kts
24-Oct-20 10:09 33.672357 -117.866920 210 61ft 0kts
24-Oct-20 10:10 33.672357 -117.866920 210 61ft 0kts
24-Oct-20 10:11 33.672357 -117.866920 210 61ft 0kts
24-Oct-20 10:12 33.672357 -117.866920 210 61ft 0kts
24-Oct-20 10:13 33.672357 -117.866920 210 61ft 0kts
24-Oct-20 10:14 33.672357 -117.866920 210 61ft 0kts
24-Oct-20 10:15 33.672357 -117.866920 210 61ft 0kts
24-Oct-20 10:16 33.672357 -117.866920 210 61ft 0kts
24-Oct-20 10:17 33.672357 -117.866920 210 61ft 0kts
24-Oct-20 10:18 33.672357 -117.866920 210 61ft 0kts
24-Oct-20 10:19 33.672357 -117.866920 210 61ft 0kts
24-Oct-20 10:20 33.672357 -117.866920 210 61ft 0kts
24-Oct-20 10:21 33.672357 -117.866920 210 61ft 0kts
24-Oct-20 10:22 33.672357 -117.866920 210 61ft 0kts
24-Oct-20 10:23 33.672357 -117.866920 210 61ft 0kts
24-Oct-20 10:24 33.672357 -117.866920 210 61ft 0kts
24-Oct-20 10:25 33.672357 -117.866920 210 61ft 0kts
24-Oct-20 10:26 33.672357 -117.866920 210 61ft 0kts
24-Oct-20 10:27 33.672357 -117.866920 210 61ft 0kts
24-Oct-20 10:28 33.672357 -117.866920 210 61ft 0kts
24-Oct-20 10:29 33.672357 -117.866920 210 61ft 0kts
24-Oct-20 10:30 33.672357 -117.866920 210 61ft 0kts
24-Oct-20 10:31 33.672357 -117.866920 210 61ft 0kts
24-Oct-20 10:32 33.672357 -117.866920 210 61ft 0kts
24-Oct-20 10:33 33.672357 -117.866920 210 61ft 0kts
24-Oct-20 10:34 33.672356 -117.866920 211 61ft 0kts
24-Oct-20 10:35 33.672356 -117.866920 210 61ft 0kts
24-Oct-20 10:36 33.672356 -117.866920 210 61ft 0kts
24-Oct-20 10:37 33.672357 -117.866920 210 61ft 0kts
24-Oct-20 10:38 33.672357 -117.866920 210 61ft 0kts
24-Oct-20 10:39 33.672357 -117.866920 210 61ft 0kts
24-Oct-20 10:40 33.672357 -117.866920 210 61ft 0kts
24-Oct-20 10:41 33.672357 -117.866920 210 61ft 0kts
24-Oct-20 10:42 33.672357 -117.866920 210 61ft 0kts
24-Oct-20 10:43 33.672357 -117.866920 210 61ft 0kts
24-Oct-20 10:44 33.673210 -117.867121 41 61ft 14kts
24-Oct-20 10:45 33.677378 -117.865018 27 61ft 20kts
24-Oct-20 10:46 33.680298 -117.864385 298 61ft 9kts
24-Oct-20 10:47 33.680457 -117.864739 298 61ft 0kts
24-Oct-20 10:48 33.680457 -117.864739 298 61ft 0kts
24-Oct-20 10:49 33.680457 -117.864739 298 61ft 0kts
24-Oct-20 10:50 33.680457 -117.864739 298 61ft 0kts
24-Oct-20 10:51 33.680457 -117.864739 298 61ft 0kts
24-Oct-20 10:52 33.680621 -117.865116 294 61ft 13kts
24-Oct-20 10:53 33.661297 -117.877863 207 653ft 133kts
24-Oct-20 10:54 33.622493 -117.890860 189 2155ft 168kts
24-Oct-20 10:55 33.574463 -117.900848 205 3961ft 177kts
24-Oct-20 10:56 33.532333 -117.933424 213 5656ft 181kts
24-Oct-20 10:57 33.489986 -117.965587 213 7319ft 179kts
24-Oct-20 10:58 33.447876 -117.996755 213 8844ft 177kts
24-Oct-20 10:59 33.405736 -118.027851 213 10027ft 188kts
24-Oct-20 11:00 33.355205 -118.066026 213 10011ft 233kts
24-Oct-20 11:01 33.338593 -118.136368 275 10251ft 241kts
24-Oct-20 11:02 33.345436 -118.197996 272 12577ft 181kts
24-Oct-20 11:03 33.383087 -118.236241 337 13680ft 208kts
24-Oct-20 11:04 33.439519 -118.256131 336 14673ft 212kts
24-Oct-20 11:05 33.496430 -118.276337 335 16057ft 215kts
24-Oct-20 11:06 33.554136 -118.296873 334 17581ft 219kts
24-Oct-20 11:07 33.612798 -118.317716 333 19177ft 220kts
24-Oct-20 11:08 33.671220 -118.338545 331 20650ft 220kts
24-Oct-20 11:09 33.729809 -118.359470 330 22079ft 220kts
24-Oct-20 11:10 33.788309 -118.380393 329 23552ft 220kts
24-Oct-20 11:11 33.846791 -118.401337 327 24968ft 219kts
24-Oct-20 11:12 33.905239 -118.422338 326 26111ft 226kts
24-Oct-20 11:13 33.973832 -118.440411 338 26091ft 270kts
24-Oct-20 11:14 34.050509 -118.454908 339 26089ft 286kts
24-Oct-20 11:15 34.130280 -118.470049 339 26075ft 295kts
24-Oct-20 11:16 34.211896 -118.485645 340 26075ft 299kts
24-Oct-20 11:17 34.294378 -118.501502 340 26077ft 302kts
24-Oct-20 11:18 34.377665 -118.517802 340 26076ft 304kts
24-Oct-20 11:19 34.461340 -118.534174 340 26077ft 306kts
24-Oct-20 11:20 34.545854 -118.550440 341 26078ft 308kts
24-Oct-20 11:21 34.630252 -118.566814 341 26078ft 308kts
24-Oct-20 11:22 34.710402 -118.594427 322 26082ft 291kts
24-Oct-20 11:23 34.781897 -118.640623 321 26091ft 290kts
24-Oct-20 11:24 34.853469 -118.686916 321 26117ft 292kts
24-Oct-20 11:25 34.925449 -118.733364 321 26126ft 293kts
24-Oct-20 11:26 34.997895 -118.780229 322 26125ft 295kts
24-Oct-20 11:27 35.070346 -118.827182 322 26123ft 296kts
24-Oct-20 11:28 35.143074 -118.874399 323 26109ft 296kts
24-Oct-20 11:29 35.215767 -118.921726 323 26104ft 295kts
24-Oct-20 11:30 35.287807 -118.968699 323 26099ft 294kts
24-Oct-20 11:31 35.360025 -119.015903 323 26093ft 294kts
24-Oct-20 11:32 35.431208 -119.062385 323 26075ft 281kts
24-Oct-20 11:33 35.504143 -119.099867 348 26069ft 300kts
24-Oct-20 11:34 35.588047 -119.110851 347 26065ft 304kts
24-Oct-20 11:35 35.672828 -119.122087 348 26065ft 306kts
24-Oct-20 11:36 35.758048 -119.133311 348 26066ft 308kts
24-Oct-20 11:37 35.843762 -119.144613 348 26066ft 308kts
24-Oct-20 11:38 35.929586 -119.155946 348 26069ft 308kts
24-Oct-20 11:40 36.014986 -119.167264 350 26086ft 307kts
24-Oct-20 11:41 36.100496 -119.178588 350 26073ft 305kts
24-Oct-20 11:42 36.185150 -119.189866 350 26070ft 303kts
24-Oct-20 11:43 36.269147 -119.201063 350 26071ft 301kts
24-Oct-20 11:44 36.352565 -119.212212 350 26071ft 300kts
24-Oct-20 11:45 36.436098 -119.223399 351 26071ft 299kts
24-Oct-20 11:46 36.519581 -119.234601 351 26073ft 299kts
24-Oct-20 11:47 36.602390 -119.245745 351 26073ft 298kts
24-Oct-20 11:48 36.685186 -119.256905 351 26073ft 298kts
24-Oct-20 11:49 36.767967 -119.268059 352 26073ft 300kts
24-Oct-20 11:50 36.851548 -119.278921 351 26073ft 301kts
24-Oct-20 11:51 36.935237 -119.290679 351 26074ft 301kts
24-Oct-20 11:52 37.018797 -119.302110 352 26072ft 301kts
24-Oct-20 11:53 37.102314 -119.313472 352 26072ft 300kts
24-Oct-20 11:54 37.185694 -119.324805 352 26091ft 298kts
24-Oct-20 11:54 37.254684 -119.334170 353 26087ft 298kts
24-Oct-20 11:56 37.351243 -119.347540 353 26102ft 296kts
24-Oct-20 11:56 37.420095 -119.357025 353 26100ft 295kts
24-Oct-20 11:58 37.515106 -119.370112 353 26101ft 294kts
24-Oct-20 11:58 37.583144 -119.379522 353 26093ft 293kts
24-Oct-20 11:59 37.664123 -119.390728 354 26083ft 292kts
24-Oct-20 12:00 37.744784 -119.401908 354 26075ft 291kts
24-Oct-20 12:01 37.825374 -119.413098 354 26065ft 291kts
24-Oct-20 12:02 37.905625 -119.424274 354 26057ft 290kts
24-Oct-20 12:03 37.985962 -119.435490 354 26036ft 289kts
24-Oct-20 12:05 38.086457 -119.449353 354 24383ft 328kts
24-Oct-20 12:05 38.161576 -119.459869 354 24094ft 317kts
24-Oct-20 12:06 38.248587 -119.472156 354 24100ft 309kts
24-Oct-20 12:07 38.333985 -119.484197 354 24123ft 306kts
24-Oct-20 12:08 38.418201 -119.496107 354 24146ft 304kts
24-Oct-20 12:09 38.502221 -119.508010 354 24165ft 303kts
24-Oct-20 12:10 38.586052 -119.519872 354 24174ft 302kts
24-Oct-20 12:11 38.669436 -119.531727 353 24184ft 302kts
24-Oct-20 12:12 38.753168 -119.543671 353 24190ft 301kts
24-Oct-20 12:13 38.836565 -119.555591 353 24197ft 300kts
24-Oct-20 12:14 38.919593 -119.567489 353 24203ft 300kts
24-Oct-20 12:15 39.004883 -119.579703 353 23278ft 324kts
24-Oct-20 12:16 39.095426 -119.592664 352 21784ft 330kts
24-Oct-20 12:17 39.186808 -119.605841 352 20287ft 330kts
24-Oct-20 12:18 39.276752 -119.618820 351 18773ft 318kts
24-Oct-20 12:19 39.362951 -119.631224 351 17254ft 308kts
24-Oct-20 12:20 39.447113 -119.643460 351 15740ft 302kts
24-Oct-20 12:21 39.530439 -119.654868 354 14228ft 300kts
24-Oct-20 12:22 39.613965 -119.650575 358 12740ft 300kts
24-Oct-20 12:23 39.693790 -119.645496 358 11195ft 264kts
24-Oct-20 12:24 39.761481 -119.641888 359 10019ft 229kts
24-Oct-20 12:25 39.814301 -119.671176 283 9214ft 216kts
24-Oct-20 12:26 39.806531 -119.741571 234 8735ft 191kts
24-Oct-20 12:27 39.759468 -119.765974 181 8627ft 185kts
24-Oct-20 12:28 39.707147 -119.766332 180 7815ft 180kts
24-Oct-20 12:29 39.654857 -119.766445 181 7831ft 195kts
24-Oct-20 12:30 39.607864 -119.766391 180 6842ft 118kts
24-Oct-20 12:31 39.573293 -119.766571 183 5635ft 125kts
24-Oct-20 12:32 39.537832 -119.766679 181 4963ft 127kts
24-Oct-20 12:33 39.504486 -119.766770 179 4420ft 79kts
24-Oct-20 12:34 39.497361 -119.765420 86 4420ft 14kts
24-Oct-20 12:35 39.498770 -119.764668 90 4420ft 0kts
24-Oct-20 12:36 39.498770 -119.764668 90 4420ft 0kts
24-Oct-20 12:37 39.498770 -119.764668 90 4420ft 0kts
24-Oct-20 12:38 39.498770 -119.764668 90 4420ft 0kts
24-Oct-20 12:39 39.498770 -119.764668 90 4420ft 0kts
24-Oct-20 12:40 39.498770 -119.764668 90 4420ft 0kts
24-Oct-20 12:41 39.498770 -119.764668 90 4420ft 0kts
24-Oct-20 12:42 39.498770 -119.764668 90 4420ft 0kts
24-Oct-20 12:43 39.498770 -119.764668 90 4420ft 0kts
24-Oct-20 12:44 39.498770 -119.764668 90 4420ft 0kts
24-Oct-20 12:45 39.498770 -119.764668 90 4420ft 0kts
24-Oct-20 12:46 39.498770 -119.764668 90 4420ft 0kts
24-Oct-20 12:47 39.498770 -119.764668 90 4420ft 0kts
24-Oct-20 12:48 39.498770 -119.764668 90 4420ft 0kts

Navigation Log

Ident Type
Flight plan parsing failed, navigation log unavailable